Time;durP1;ratioP1;P1;durP2;ratioP2;P2;SDS_P1;SDS_P2;PMS_P1;PMS_P2;Temp;Humidity;BMP_temperature;BMP_pressure;BME280_temperature;BME280_humidity;BME280_pressure;Samples;Min_cycle;Max_cycle;Signal;HPM_P1;HPM_P2
2022/07/30 00:00:56;;;;;;;7.13;5.00;;;;;;;12.06;100.00;93283.81;2118655;27;20089;-74
2022/07/30 00:01:57;;;;;;;5.63;4.80;;;;;;;12.05;100.00;93275.03;2117877;27;20036;-74
2022/07/30 00:02:58;;;;;;;5.82;5.22;;;;;;;12.05;100.00;93283.06;2118488;27;20020;-75
2022/07/30 00:03:58;;;;;;;8.38;5.57;;;;;;;11.99;100.00;93276.72;2117379;27;20146;-74
2022/07/30 00:05:00;;;;;;;9.65;5.40;;;;;;;11.94;100.00;93279.13;2116772;27;20457;-74
2022/07/30 00:06:00;;;;;;;8.90;5.68;;;;;;;11.84;100.00;93275.53;2118508;27;20065;-74
2022/07/30 00:07:03;;;;;;;8.02;6.05;;;;;;;11.83;100.00;93277.47;2117439;27;20031;-74
2022/07/30 00:08:04;;;;;;;8.98;6.07;;;;;;;11.82;100.00;93270.63;2117555;27;20031;-74
2022/07/30 00:09:05;;;;;;;7.95;6.13;;;;;;;11.86;100.00;93273.22;2117348;27;20039;-74
2022/07/30 00:10:06;;;;;;;9.68;7.13;;;;;;;11.87;100.00;93271.28;2118263;27;20156;-74
2022/07/30 00:11:07;;;;;;;9.70;8.23;;;;;;;11.84;100.00;93278.97;2118439;27;20039;-74
2022/07/30 00:12:09;;;;;;;9.23;6.55;;;;;;;11.92;100.00;93276.13;2116788;27;20468;-74
2022/07/30 00:13:09;;;;;;;8.90;6.55;;;;;;;11.93;100.00;93278.38;2118455;27;20039;-73
2022/07/30 00:14:11;;;;;;;7.70;6.15;;;;;;;11.90;100.00;93279.25;2117872;27;20031;-74
2022/07/30 00:15:12;;;;;;;7.55;6.13;;;;;;;11.79;100.00;93276.78;2117688;27;20535;-74
2022/07/30 00:16:13;;;;;;;6.90;6.25;;;;;;;11.86;100.00;93277.81;2118474;27;20027;-74
2022/07/30 00:17:14;;;;;;;6.82;6.15;;;;;;;11.84;100.00;93272.88;2117099;27;20038;-74
2022/07/30 00:18:14;;;;;;;7.13;5.90;;;;;;;11.79;100.00;93273.34;2116931;27;20405;-74
2022/07/30 00:19:15;;;;;;;9.50;6.45;;;;;;;11.84;100.00;93273.63;2118595;27;20015;-74
2022/07/30 00:20:16;;;;;;;9.55;5.90;;;;;;;11.79;100.00;93273.34;2117508;27;20036;-74
2022/07/30 00:21:17;;;;;;;6.53;5.68;;;;;;;11.75;100.00;93275.34;2120734;27;20375;-74
2022/07/30 00:22:18;;;;;;;5.97;5.38;;;;;;;11.64;100.00;93280.97;2117482;27;20106;-75
2022/07/30 00:23:19;;;;;;;8.18;5.82;;;;;;;11.79;100.00;93273.34;2116657;27;20035;-74
2022/07/30 00:24:20;;;;;;;5.95;5.07;;;;;;;11.74;100.00;93277.28;2117786;27;20070;-74
2022/07/30 00:25:21;;;;;;;5.43;4.93;;;;;;;11.78;100.00;93274.53;2116997;27;20048;-74
2022/07/30 00:26:22;;;;;;;6.18;4.55;;;;;;;11.90;100.00;93276.56;2118561;27;20058;-74
2022/07/30 00:27:23;;;;;;;5.88;4.53;;;;;;;11.87;100.00;93277.38;2117115;27;20023;-74
2022/07/30 00:28:24;;;;;;;7.30;4.80;;;;;;;11.93;100.00;93280.31;2117372;27;20039;-74
2022/07/30 00:29:25;;;;;;;7.70;4.13;;;;;;;12.03;100.00;93274.72;2116896;27;20077;-74
2022/07/30 00:30:26;;;;;;;5.50;4.50;;;;;;;12.02;100.00;93283.16;2117074;27;20035;-75
2022/07/30 00:31:28;;;;;;;4.50;4.10;;;;;;;12.07;100.00;93279.97;2118081;27;20488;-74
2022/07/30 00:32:28;;;;;;;7.22;4.22;;;;;;;12.05;100.00;93277.72;2116772;27;20059;-74
2022/07/30 00:33:29;;;;;;;14.75;4.60;;;;;;;12.01;100.00;93279.72;2117869;27;20446;-74
2022/07/30 00:34:30;;;;;;;5.65;4.10;;;;;;;12.06;100.00;93281.13;2118837;27;20417;-74
2022/07/30 00:35:33;;;;;;;5.75;4.38;;;;;;;12.05;100.00;93279.63;2118859;27;20046;-74
2022/07/30 00:36:33;;;;;;;5.07;4.55;;;;;;;12.05;100.00;93276.97;2118925;27;20460;-74
2022/07/30 00:37:34;;;;;;;6.35;4.22;;;;;;;12.05;100.00;93279.63;2117191;27;20043;-74
2022/07/30 00:38:37;;;;;;;10.23;3.92;;;;;;;12.03;100.00;93280.06;2117414;27;20458;-74
2022/07/30 00:39:38;;;;;;;6.72;4.30;;;;;;;12.01;100.00;93277.03;2118009;27;20035;-74
2022/07/30 00:40:39;;;;;;;7.18;3.95;;;;;;;12.00;100.00;93280.91;2117178;27;20027;-74
2022/07/30 00:41:55;;;;;;;6.55;4.40;;;;;;;12.01;100.00;93285.06;2117517;27;20087;-74
2022/07/30 00:42:56;;;;;;;4.75;3.72;;;;;;;11.96;100.00;93279.47;2117641;27;20027;-74
2022/07/30 00:43:57;;;;;;;5.38;3.60;;;;;;;11.89;100.00;93276.97;2117105;27;20027;-74
2022/07/30 00:44:58;;;;;;;4.50;4.00;;;;;;;11.88;100.00;93283.50;2117874;27;20667;-74
2022/07/30 00:45:59;;;;;;;7.30;4.15;;;;;;;11.85;100.00;93279.72;2116276;27;20035;-74
2022/07/30 00:47:00;;;;;;;9.77;4.07;;;;;;;11.81;100.00;93285.16;2118166;27;20026;-74
2022/07/30 00:48:01;;;;;;;4.82;4.03;;;;;;;11.84;100.00;93280.91;2116766;27;20409;-74
2022/07/30 00:49:02;;;;;;;6.53;4.13;;;;;;;11.86;100.00;93283.94;2117068;27;20071;-74
2022/07/30 00:50:07;;;;;;;7.18;4.10;;;;;;;11.90;100.00;93273.88;2117820;27;20087;-73
2022/07/30 00:51:08;;;;;;;4.60;3.80;;;;;;;11.90;100.00;93281.16;2115797;27;20080;-74
2022/07/30 00:52:09;;;;;;;6.47;4.05;;;;;;;11.92;100.00;93284.91;2117873;27;20042;-74
2022/07/30 00:53:09;;;;;;;5.05;3.97;;;;;;;11.83;100.00;93285.50;2114915;27;20023;-74
2022/07/30 00:54:11;;;;;;;5.75;3.53;;;;;;;11.79;100.00;93284.81;2117030;27;20027;-74
2022/07/30 00:55:13;;;;;;;7.65;4.88;;;;;;;11.79;100.00;93284.06;2116911;27;20039;-73
2022/07/30 00:56:14;;;;;;;8.88;4.07;;;;;;;11.80;100.00;93290.91;2116909;27;20150;-74
2022/07/30 00:57:15;;;;;;;5.10;4.30;;;;;;;11.75;100.00;93291.41;2118130;27;20445;-74
2022/07/30 00:58:16;;;;;;;5.22;3.92;;;;;;;11.69;100.00;93293.84;2117377;27;20027;-73
2022/07/30 00:59:17;;;;;;;5.03;3.78;;;;;;;11.69;100.00;93295.78;2117602;27;20350;-73
2022/07/30 01:00:18;;;;;;;9.18;4.30;;;;;;;11.62;100.00;93291.31;2118355;27;20126;-74
2022/07/30 01:01:19;;;;;;;9.23;4.20;;;;;;;11.60;100.00;93296.34;2115914;27;20043;-74
2022/07/30 01:02:20;;;;;;;7.28;4.15;;;;;;;11.53;100.00;93297.25;2117756;27;20019;-74
2022/07/30 01:03:21;;;;;;;6.10;4.03;;;;;;;11.57;100.00;93300.59;2117391;27;20053;-74
2022/07/30 01:04:22;;;;;;;5.60;3.60;;;;;;;11.60;100.00;93291.75;2117206;27;20088;-74
2022/07/30 01:05:23;;;;;;;7.03;3.88;;;;;;;11.52;100.00;93300.38;2117758;27;20023;-74
2022/07/30 01:06:25;;;;;;;6.38;3.67;;;;;;;11.58;100.00;93304.78;2115171;27;20036;-73
2022/07/30 01:07:26;;;;;;;6.13;3.85;;;;;;;11.64;100.00;93293.59;2117463;27;20020;-74
2022/07/30 01:08:26;;;;;;;9.40;3.92;;;;;;;11.62;100.00;93296.69;2117611;27;20552;-74
2022/07/30 01:09:27;;;;;;;6.13;4.00;;;;;;;11.58;100.00;93294.06;2117707;27;20057;-74
2022/07/30 01:10:29;;;;;;;5.32;4.20;;;;;;;11.47;100.00;93301.63;2117815;27;20032;-74
2022/07/30 01:11:34;;;;;;;8.82;4.70;;;;;;;11.40;100.00;93298.34;2115732;27;20122;-74
2022/07/30 01:12:36;;;;;;;5.57;4.20;;;;;;;11.50;100.00;93298.09;2116840;27;20108;-74
2022/07/30 01:13:37;;;;;;;4.68;3.92;;;;;;;11.55;100.00;93305.63;2115682;27;20033;-74
2022/07/30 01:14:38;;;;;;;6.38;4.22;;;;;;;11.52;100.00;93303.78;2118407;27;20023;-74
2022/07/30 01:15:40;;;;;;;7.93;4.10;;;;;;;11.53;100.00;93297.25;2117148;27;20139;-74
2022/07/30 01:16:41;;;;;;;8.73;4.07;;;;;;;11.54;100.00;93308.72;2117438;27;20036;-74
2022/07/30 01:17:45;;;;;;;5.70;4.00;;;;;;;11.52;100.00;93303.03;2118100;27;20035;-74
2022/07/30 01:20:36;;;;;;;;;;;;;;;11.41;100.00;93302.50;2117369;27;20038;-75
2022/07/30 01:21:40;;;;;;;6.32;4.00;;;;;;;11.45;100.00;93306.63;2100858;27;20275;-74
2022/07/30 01:23:12;;;;;;;6.03;3.83;;;;;;;11.45;100.00;93303.19;2117282;27;20527;-75
2022/07/30 01:24:31;;;;;;;7.63;4.20;;;;;;;11.41;100.00;93305.94;2118011;27;20027;-75
2022/07/30 01:26:10;;;;;;;5.40;4.30;;;;;;;11.30;100.00;93300.06;2116336;27;20066;-74
2022/07/30 01:27:13;;;;;;;5.22;3.95;;;;;;;11.29;100.00;93303.94;2115891;27;20019;-74
2022/07/30 01:28:19;;;;;;;8.25;4.40;;;;;;;11.32;100.00;93301.16;2117166;27;20132;-74
2022/07/30 01:29:23;;;;;;;5.25;4.05;;;;;;;11.29;100.00;93307.34;2116529;27;20065;-74
2022/07/30 01:30:28;;;;;;;5.78;3.92;;;;;;;11.10;100.00;93306.19;2116902;27;20036;-73
2022/07/30 01:31:31;;;;;;;7.50;4.00;;;;;;;11.16;100.00;93303.06;2117364;27;20034;-74
2022/07/30 01:32:35;;;;;;;4.47;3.70;;;;;;;11.14;100.00;93303.47;2117815;27;20029;-74
2022/07/30 01:33:40;;;;;;;4.55;4.15;;;;;;;11.21;100.00;93311.34;2116505;27;20122;-74
2022/07/30 01:34:42;;;;;;;4.82;4.43;;;;;;;11.26;100.00;93305.50;2116768;27;20019;-74
2022/07/30 01:35:45;;;;;;;4.80;3.85;;;;;;;11.23;100.00;93313.59;2115565;27;20027;-75
2022/07/30 01:36:47;;;;;;;5.30;4.28;;;;;;;11.17;100.00;93307.25;2117415;27;20525;-75
2022/07/30 01:37:51;;;;;;;7.10;4.47;;;;;;;11.22;100.00;93306.75;2117306;27;20035;-75
2022/07/30 01:38:52;;;;;;;5.88;4.07;;;;;;;11.22;100.00;93309.41;2117587;27;20034;-75
2022/07/30 01:39:54;;;;;;;8.48;4.55;;;;;;;11.17;100.00;93308.00;2117860;27;20483;-74
2022/07/30 01:40:56;;;;;;;4.60;4.13;;;;;;;11.17;100.00;93302.63;2116796;27;20488;-75
2022/07/30 01:41:58;;;;;;;6.50;4.63;;;;;;;11.16;100.00;93303.81;2116535;27;20039;-75
2022/07/30 01:43:01;;;;;;;7.53;4.55;;;;;;;11.24;100.00;93309.78;2117638;27;20489;-74
2022/07/30 01:44:04;;;;;;;7.40;4.43;;;;;;;11.18;100.00;93309.50;2117728;27;20024;-74
2022/07/30 01:45:07;;;;;;;5.30;4.13;;;;;;;11.19;100.00;93313.66;2116536;27;20150;-75
2022/07/30 01:46:10;;;;;;;8.65;4.40;;;;;;;11.18;100.00;93308.75;2117264;27;20540;-74
2022/07/30 01:47:13;;;;;;;9.75;4.68;;;;;;;11.17;100.00;93310.66;2117936;27;20613;-74
2022/07/30 01:48:17;;;;;;;10.90;4.20;;;;;;;11.01;100.00;93307.94;2118069;27;20019;-74
2022/07/30 01:49:18;;;;;;;4.88;4.32;;;;;;;11.06;100.00;93304.75;2116126;27;20336;-74
2022/07/30 01:50:21;;;;;;;12.20;4.55;;;;;;;11.12;100.00;93310.41;2117422;27;20111;-75
2022/07/30 01:51:23;;;;;;;8.93;4.60;;;;;;;11.09;100.00;93311.97;2116543;27;20031;-75
2022/07/30 01:52:29;;;;;;;6.90;4.57;;;;;;;11.08;100.00;93311.22;2115517;27;20039;-75
2022/07/30 01:53:35;;;;;;;8.63;4.75;;;;;;;11.05;100.00;93306.69;2116730;27;20111;-75
2022/07/30 01:54:37;;;;;;;6.00;4.50;;;;;;;11.05;100.00;93314.72;2116676;27;20027;-74
2022/07/30 01:55:41;;;;;;;6.93;4.88;;;;;;;10.88;100.00;93313.16;2117245;27;20381;-75
2022/07/30 01:56:44;;;;;;;7.63;4.65;;;;;;;10.93;100.00;93311.91;2117349;27;20035;-75
2022/07/30 01:57:47;;;;;;;6.07;4.55;;;;;;;10.95;100.00;93310.34;2117178;27;20047;-74
2022/07/30 01:58:49;;;;;;;6.05;4.30;;;;;;;10.92;100.00;93315.75;2117690;27;20111;-74
2022/07/30 01:59:56;;;;;;;5.97;5.00;;;;;;;10.77;100.00;93313.38;2116996;27;20034;-74
2022/07/30 02:00:57;;;;;;;4.78;4.30;;;;;;;10.84;100.00;93312.47;2117268;28;20027;-74
2022/07/30 02:01:59;;;;;;;6.43;4.70;;;;;;;10.88;100.00;93307.81;2116576;27;20051;-74
2022/07/30 02:03:00;;;;;;;9.80;4.90;;;;;;;10.86;100.00;93312.81;2115520;27;20050;-74
2022/07/30 02:04:03;;;;;;;7.38;5.10;;;;;;;10.93;100.00;93312.69;2117813;27;20373;-74
2022/07/30 02:05:04;;;;;;;4.85;4.40;;;;;;;10.77;100.00;93310.69;2117610;27;20031;-74
2022/07/30 02:06:41;;;;;;;6.18;4.35;;;;;;;10.78;100.00;93303.44;2116603;27;20035;-74
2022/07/30 02:07:57;;;;;;;10.98;5.00;;;;;;;10.79;100.00;93307.59;2104459;27;20358;-73
2022/07/30 02:09:03;;;;;;;7.35;4.70;;;;;;;10.82;100.00;93309.47;2117540;27;20032;-74
2022/07/30 02:10:12;;;;;;;5.97;4.70;;;;;;;10.70;100.00;93305.47;2117272;27;20617;-76
2022/07/30 02:14:40;;;;;;;;;;;;;;;10.84;100.00;93307.13;2143496;27;20542;-72
2022/07/30 02:15:48;;;;;;;7.07;4.53;;;;;;;10.80;100.00;93306.47;2136025;27;19915;-71
2022/07/30 02:16:53;;;;;;;5.18;4.28;;;;;;;10.77;100.00;93300.00;2136945;27;20026;-74
2022/07/30 02:18:00;;;;;;;6.18;4.65;;;;;;;10.78;100.00;93306.09;2136743;27;20452;-71
2022/07/30 02:19:07;;;;;;;7.88;4.60;;;;;;;10.75;100.00;93301.56;2135754;27;20464;-71
2022/07/30 02:20:11;;;;;;;8.80;5.18;;;;;;;10.67;100.00;93306.31;2136895;27;20034;-71
2022/07/30 02:21:16;;;;;;;9.57;4.80;;;;;;;10.63;100.00;93302.97;2136330;27;20071;-71
2022/07/30 02:22:19;;;;;;;7.45;4.68;;;;;;;10.64;100.00;93301.03;2136577;27;20033;-71
2022/07/30 02:23:21;;;;;;;8.23;4.72;;;;;;;10.63;100.00;93313.66;2135837;27;20030;-74
2022/07/30 02:24:26;;;;;;;10.38;5.20;;;;;;;10.62;100.00;93306.78;2135309;27;20054;-74
2022/07/30 02:25:30;;;;;;;10.90;4.85;;;;;;;10.61;100.00;93304.50;2136549;27;20023;-71
2022/07/30 02:26:33;;;;;;;6.50;5.13;;;;;;;10.51;100.00;93306.97;2136068;27;20018;-71
2022/07/30 02:27:37;;;;;;;6.53;4.90;;;;;;;10.51;100.00;93306.97;2134904;27;21518;-74
2022/07/30 02:28:42;;;;;;;6.25;5.45;;;;;;;10.52;100.00;93303.13;2136790;27;20041;-74
2022/07/30 02:29:45;;;;;;;10.65;5.03;;;;;;;10.48;100.00;93307.78;2136308;27;20026;-74
2022/07/30 02:30:51;;;;;;;6.57;5.22;;;;;;;10.50;100.00;93308.16;2136192;27;20029;-71
2022/07/30 02:31:55;;;;;;;5.38;4.90;;;;;;;10.52;100.00;93303.13;2134760;27;20411;-71
2022/07/30 02:33:03;;;;;;;5.50;4.97;;;;;;;10.49;100.00;93300.53;2135516;27;20062;-74
2022/07/30 02:34:06;;;;;;;6.85;5.20;;;;;;;10.51;100.00;93300.88;2136145;27;20034;-73
2022/07/30 02:35:13;;;;;;;5.47;4.90;;;;;;;10.47;100.00;93303.63;2135967;27;20630;-74
2022/07/30 02:36:17;;;;;;;8.82;5.30;;;;;;;10.42;100.00;93311.38;2136599;27;20031;-74
2022/07/30 02:37:22;;;;;;;6.05;5.28;;;;;;;10.41;100.00;93299.16;2135099;27;20113;-75
2022/07/30 02:38:26;;;;;;;6.63;5.07;;;;;;;10.46;100.00;93310.13;2136089;27;20022;-72
2022/07/30 02:39:29;;;;;;;9.98;5.57;;;;;;;10.51;100.00;93306.22;2135732;27;20022;-72
2022/07/30 02:40:31;;;;;;;5.45;4.95;;;;;;;10.41;100.00;93312.53;2135781;27;20034;-75
2022/07/30 02:41:35;;;;;;;5.70;5.10;;;;;;;10.46;100.00;93312.81;2136656;27;20037;-75
2022/07/30 02:42:37;;;;;;;6.22;4.95;;;;;;;10.40;100.00;93309.09;2135467;27;20109;-75
2022/07/30 02:43:40;;;;;;;7.10;5.30;;;;;;;10.41;100.00;93318.63;2137002;27;20043;-75
2022/07/30 02:44:44;;;;;;;5.90;5.32;;;;;;;10.38;100.00;93316.00;2135239;27;20031;-75
2022/07/30 02:45:47;;;;;;;6.82;5.20;;;;;;;10.37;100.00;93309.91;2136143;27;20042;-72
2022/07/30 02:46:50;;;;;;;11.05;5.50;;;;;;;10.41;100.00;93315.94;2136574;27;20033;-74
2022/07/30 02:47:56;;;;;;;11.15;5.57;;;;;;;10.41;100.00;93317.88;2135364;27;20026;-73
2022/07/30 02:48:57;;;;;;;7.20;5.47;;;;;;;10.32;100.00;93313.81;2136235;27;20353;-72
2022/07/30 02:50:01;;;;;;;11.20;4.90;;;;;;;10.28;100.00;93323.06;2135654;27;20034;-72
2022/07/30 02:51:04;;;;;;;7.90;5.40;;;;;;;10.29;100.00;93317.28;2135736;27;20034;-72
2022/07/30 02:52:11;;;;;;;5.72;5.22;;;;;;;10.26;100.00;93322.69;2136221;27;20088;-72
2022/07/30 02:53:13;;;;;;;9.80;5.13;;;;;;;10.19;100.00;93320.88;2135267;27;20026;-74
2022/07/30 02:54:17;;;;;;;6.03;5.20;;;;;;;10.23;100.00;93323.50;2137215;27;20019;-74
2022/07/30 02:55:19;;;;;;;6.13;5.53;;;;;;;10.25;100.00;93321.19;2137443;27;20033;-72
2022/07/30 02:56:21;;;;;;;6.35;5.50;;;;;;;10.25;100.00;93319.28;2135055;27;20034;-72
2022/07/30 02:57:22;;;;;;;7.07;5.60;;;;;;;10.24;100.00;93325.78;2137044;27;20027;-75
2022/07/30 02:58:26;;;;;;;6.13;5.30;;;;;;;10.15;100.00;93320.19;2127488;27;20056;-74
2022/07/30 02:59:29;;;;;;;8.45;5.88;;;;;;;10.19;100.00;93328.91;2126204;27;20031;-75
2022/07/30 03:00:31;;;;;;;7.05;5.47;;;;;;;10.23;100.00;93318.16;2136132;27;20029;-72
2022/07/30 03:01:33;;;;;;;6.40;5.80;;;;;;;10.13;100.00;93325.16;2135721;27;20113;-72
2022/07/30 03:02:35;;;;;;;7.47;5.88;;;;;;;10.18;100.00;93322.03;2136573;27;20106;-72
2022/07/30 03:03:37;;;;;;;8.50;5.63;;;;;;;10.00;100.00;93316.97;2135143;27;20470;-73
2022/07/30 03:04:39;;;;;;;9.15;5.72;;;;;;;10.04;100.00;93322.28;2136455;27;20521;-73
2022/07/30 03:05:42;;;;;;;11.88;5.90;;;;;;;9.96;100.00;93318.94;2135423;27;20061;-74
2022/07/30 03:06:44;;;;;;;6.22;5.30;;;;;;;10.03;100.00;93324.19;2136444;27;20018;-76
2022/07/30 03:07:46;;;;;;;14.90;5.82;;;;;;;10.00;100.00;93321.56;2135161;27;20312;-73
2022/07/30 03:08:49;;;;;;;8.55;6.18;;;;;;;10.06;100.00;93323.38;2136488;27;20026;-73
2022/07/30 03:09:53;;;;;;;8.10;5.47;;;;;;;10.00;100.00;93322.31;2136178;27;20033;-73
2022/07/30 03:10:54;;;;;;;6.05;5.55;;;;;;;9.99;100.00;93320.81;2136404;27;20079;-72
2022/07/30 03:11:56;;;;;;;6.57;5.88;;;;;;;9.99;100.00;93318.16;2135426;27;20223;-73
2022/07/30 03:13:00;;;;;;;10.10;6.03;;;;;;;10.00;100.00;93322.31;2136251;27;20056;-73
2022/07/30 03:14:01;;;;;;;6.90;5.70;;;;;;;10.04;100.00;93323.03;2135144;27;20066;-72
2022/07/30 03:15:03;;;;;;;11.65;6.07;;;;;;;10.01;100.00;93320.44;2136137;27;20038;-73
2022/07/30 03:16:08;;;;;;;9.60;6.25;;;;;;;10.01;100.00;93318.50;2136226;27;20126;-73
2022/07/30 03:17:13;;;;;;;7.82;5.90;;;;;;;10.02;100.00;93317.34;2136619;27;20019;-72
2022/07/30 03:18:17;;;;;;;6.47;5.85;;;;;;;9.90;100.00;93320.59;2136087;27;20114;-75
2022/07/30 03:19:21;;;;;;;6.32;5.50;;;;;;;9.87;100.00;93320.63;2136029;27;20030;-73
2022/07/30 03:20:26;;;;;;;11.43;6.10;;;;;;;9.91;100.00;93316.75;2135709;27;20104;-72
2022/07/30 03:21:30;;;;;;;9.48;5.55;;;;;;;9.90;100.00;93317.91;2135527;27;20022;-72
2022/07/30 03:22:35;;;;;;;11.27;5.47;;;;;;;9.99;100.00;93323.50;2135607;27;20026;-71
2022/07/30 03:23:37;;;;;;;11.32;5.50;;;;;;;9.98;100.00;93313.22;2136824;27;20126;-74
2022/07/30 03:24:41;;;;;;;8.18;5.72;;;;;;;9.97;100.00;93317.81;2135403;27;20092;-73
2022/07/30 03:25:46;;;;;;;6.57;5.97;;;;;;;9.95;100.00;93322.03;2131389;27;20026;-71
2022/07/30 03:26:50;;;;;;;7.63;6.40;;;;;;;9.89;100.00;93318.34;2121019;27;20027;-74
2022/07/30 03:27:54;;;;;;;9.18;5.72;;;;;;;9.87;100.00;93318.72;2121598;27;20073;-71
2022/07/30 03:28:55;;;;;;;6.68;5.53;;;;;;;9.81;100.00;93323.03;2130945;27;20048;-72
2022/07/30 03:29:58;;;;;;;8.25;6.07;;;;;;;9.76;100.00;93324.25;2129296;27;20030;-74
2022/07/30 03:31:00;;;;;;;7.57;6.07;;;;;;;9.85;100.00;93326.41;2130239;27;20031;-71
2022/07/30 03:32:03;;;;;;;8.85;6.28;;;;;;;9.86;100.00;93327.91;2129682;27;20035;-71
2022/07/30 03:33:05;;;;;;;6.38;5.78;;;;;;;9.78;100.00;93327.25;2130865;27;20030;-70
2022/07/30 03:34:07;;;;;;;8.25;5.63;;;;;;;9.74;100.00;93323.88;2129480;27;20084;-71
2022/07/30 03:35:09;;;;;;;7.03;5.93;;;;;;;9.64;100.00;93324.03;2129211;27;20043;-72
2022/07/30 03:36:12;;;;;;;6.00;5.45;;;;;;;9.78;100.00;93326.50;2128256;27;20062;-74
2022/07/30 03:37:14;;;;;;;7.60;6.07;;;;;;;9.75;100.00;93325.41;2129583;27;20030;-72
2022/07/30 03:38:16;;;;;;;6.53;5.80;;;;;;;9.74;100.00;93323.88;2130340;27;20019;-74
2022/07/30 03:39:18;;;;;;;8.07;6.05;;;;;;;9.80;100.00;93318.84;2130790;27;20027;-72
2022/07/30 03:40:20;;;;;;;6.60;5.55;;;;;;;9.83;100.00;93323.34;2130434;27;20031;-71
2022/07/30 03:41:22;;;;;;;6.72;5.80;;;;;;;9.66;100.00;93324.38;2127675;27;20372;-71
2022/07/30 03:42:24;;;;;;;7.47;6.30;;;;;;;9.61;100.00;93320.25;2121321;27;20061;-74
2022/07/30 03:43:25;;;;;;;6.53;5.93;;;;;;;9.58;100.00;93321.84;2121119;27;20118;-71
2022/07/30 03:44:26;;;;;;;7.88;6.10;;;;;;;9.69;100.00;93320.91;2129147;27;20042;-72
2022/07/30 03:45:28;;;;;;;7.47;6.60;;;;;;;9.72;100.00;93322.78;2130559;27;20480;-71
2022/07/30 03:46:31;;;;;;;6.65;5.90;;;;;;;9.69;100.00;93326.25;2130152;27;20023;-72
2022/07/30 03:47:35;;;;;;;9.32;6.45;;;;;;;9.67;100.00;93324.00;2129967;27;20030;-72
2022/07/30 03:48:38;;;;;;;6.97;6.00;;;;;;;9.64;100.00;93329.38;2129077;27;20031;-75
2022/07/30 03:49:39;;;;;;;9.32;6.50;;;;;;;9.65;100.00;93331.63;2130106;27;20536;-72
2022/07/30 03:50:41;;;;;;;7.57;5.97;;;;;;;9.66;100.00;93325.16;2129655;27;20075;-74
2022/07/30 03:51:43;;;;;;;6.90;6.20;;;;;;;9.63;100.00;93327.88;2129883;27;20042;-73
2022/07/30 03:52:44;;;;;;;9.82;6.28;;;;;;;9.64;100.00;93326.72;2130361;27;20375;-72
2022/07/30 03:53:46;;;;;;;10.20;6.45;;;;;;;9.65;100.00;93325.56;2120816;27;20139;-74
2022/07/30 03:54:47;;;;;;;9.32;6.35;;;;;;;9.64;100.00;93324.78;2121170;27;20027;-72
2022/07/30 03:55:49;;;;;;;8.85;6.20;;;;;;;9.65;100.00;93328.22;2130368;27;20026;-72
2022/07/30 03:56:50;;;;;;;6.15;5.55;;;;;;;9.67;100.00;93334.69;2130551;27;20030;-74
2022/07/30 03:57:51;;;;;;;8.18;6.22;;;;;;;9.64;100.00;93326.72;2128988;27;20433;-72
2022/07/30 03:58:52;;;;;;;7.88;6.65;;;;;;;9.59;100.00;93330.59;2121443;27;20042;-72
2022/07/30 03:59:53;;;;;;;11.48;6.55;;;;;;;9.59;100.00;93331.34;2111745;28;20427;-72
2022/07/30 04:00:54;;;;;;;7.35;5.88;;;;;;;9.62;100.00;93331.72;2121512;27;20110;-73
2022/07/30 04:02:02;;;;;;;7.75;6.65;;;;;;;9.64;100.00;93332.06;2129665;27;20030;-75
2022/07/30 04:03:03;;;;;;;7.75;6.32;;;;;;;9.71;100.00;93334.63;2130121;27;20023;-74
2022/07/30 04:04:09;;;;;;;8.75;6.47;;;;;;;9.71;100.00;93335.38;2130061;27;20054;-72
2022/07/30 04:05:14;;;;;;;7.35;6.38;;;;;;;9.67;100.00;93334.69;2129889;27;20163;-72
2022/07/30 04:06:14;;;;;;;7.65;6.00;;;;;;;9.65;100.00;93330.88;2130406;27;20152;-71
2022/07/30 04:07:15;;;;;;;9.20;6.18;;;;;;;9.69;100.00;93335.00;2128542;27;20043;-72
2022/07/30 04:08:16;;;;;;;7.68;6.45;;;;;;;9.64;100.00;93332.81;2121237;27;20027;-72
2022/07/30 04:09:18;;;;;;;7.05;6.28;;;;;;;9.68;100.00;93333.50;2112937;28;20781;-74
2022/07/30 04:10:19;;;;;;;8.02;6.40;;;;;;;9.74;100.00;93344.47;2120617;27;20392;-74
2022/07/30 04:11:20;;;;;;;7.78;6.22;;;;;;;9.58;100.00;93345.84;2130895;27;20031;-72
2022/07/30 04:12:20;;;;;;;11.27;6.70;;;;;;;9.66;100.00;93338.50;2118801;27;20038;-74
2022/07/30 04:13:21;;;;;;;7.00;6.28;;;;;;;9.66;100.00;93338.50;2120813;27;20066;-72
2022/07/30 04:14:22;;;;;;;9.00;6.07;;;;;;;9.64;100.00;93345.41;2130449;27;20057;-72
2022/07/30 04:15:23;;;;;;;8.00;6.20;;;;;;;9.67;100.00;93341.94;2122021;27;20023;-72
2022/07/30 04:16:37;;;;;;;7.15;5.93;;;;;;;9.70;100.00;93346.44;2124972;27;20764;-76
2022/07/30 04:17:42;;;;;;;8.43;6.32;;;;;;;9.73;100.00;93348.31;2123273;27;20058;-75
2022/07/30 04:18:53;;;;;;;7.78;6.45;;;;;;;9.68;100.00;93344.19;2125773;27;20753;-74
2022/07/30 04:20:03;;;;;;;7.40;6.03;;;;;;;9.74;100.00;93347.16;2126580;27;20023;-71
2022/07/30 04:21:07;;;;;;;6.65;5.88;;;;;;;9.79;100.00;93344.03;2126819;27;20021;-72
2022/07/30 04:22:11;;;;;;;7.30;6.20;;;;;;;9.73;100.00;93350.97;2127053;27;20049;-72
2022/07/30 04:23:14;;;;;;;9.10;6.63;;;;;;;9.76;100.00;93350.19;2123662;27;20030;-71
2022/07/30 04:24:17;;;;;;;9.88;7.10;;;;;;;9.66;100.00;93346.50;2126707;27;20022;-72
2022/07/30 04:25:19;;;;;;;8.88;6.57;;;;;;;9.76;100.00;93350.19;2128710;27;20034;-73
2022/07/30 04:26:21;;;;;;;8.35;6.50;;;;;;;9.78;100.00;93347.84;2129437;27;20372;-72
2022/07/30 04:27:24;;;;;;;7.43;6.53;;;;;;;9.73;100.00;93348.31;2128994;27;20022;-72
2022/07/30 04:28:26;;;;;;;8.75;6.18;;;;;;;9.78;100.00;93348.59;2127832;27;20050;-72
2022/07/30 04:29:28;;;;;;;7.28;6.40;;;;;;;9.81;100.00;93352.38;2128725;27;20440;-72
2022/07/30 04:30:32;;;;;;;9.43;7.00;;;;;;;9.87;100.00;93350.00;2119549;27;20198;-72
2022/07/30 04:31:34;;;;;;;7.60;6.13;;;;;;;9.87;100.00;93353.44;2121010;27;20054;-74
2022/07/30 04:32:36;;;;;;;8.82;6.72;;;;;;;9.87;100.00;93350.75;2128599;27;20030;-73
2022/07/30 04:33:37;;;;;;;8.27;7.10;;;;;;;9.90;100.00;93352.63;2129165;27;20032;-72
2022/07/30 04:34:48;;;;;;;9.88;6.97;;;;;;;9.90;100.00;93357.97;2128066;27;20031;-72
2022/07/30 04:35:49;;;;;;;7.85;6.25;;;;;;;9.88;100.00;93359.53;2128211;27;20026;-72
2022/07/30 04:36:50;;;;;;;8.95;6.63;;;;;;;9.91;100.00;93354.13;2128035;27;20053;-72
2022/07/30 04:37:53;;;;;;;10.25;6.57;;;;;;;9.88;100.00;93354.97;2128308;27;20023;-72
2022/07/30 04:38:54;;;;;;;10.50;7.10;;;;;;;9.93;100.00;93354.50;2127984;27;20026;-72
2022/07/30 04:39:56;;;;;;;8.23;6.65;;;;;;;10.00;100.00;93362.38;2129602;27;20487;-72
2022/07/30 04:40:57;;;;;;;10.07;7.05;;;;;;;10.02;100.00;93364.66;2129599;27;20035;-72
2022/07/30 04:41:58;;;;;;;8.35;6.93;;;;;;;9.90;100.00;93371.31;2118317;27;20084;-73
2022/07/30 04:42:59;;;;;;;8.73;6.65;;;;;;;10.00;100.00;93358.97;2120485;27;20035;-72
2022/07/30 04:44:00;;;;;;;8.55;6.65;;;;;;;10.03;100.00;93361.56;2129373;27;20134;-71
2022/07/30 04:45:01;;;;;;;6.68;6.13;;;;;;;10.06;100.00;93360.03;2128896;27;20143;-70
2022/07/30 04:46:02;;;;;;;9.88;6.78;;;;;;;10.11;100.00;93359.56;2124615;27;20114;-71
2022/07/30 04:47:03;;;;;;;10.25;6.70;;;;;;;10.06;100.00;93362.69;2122409;27;20035;-70
2022/07/30 04:48:05;;;;;;;9.15;6.75;;;;;;;10.08;100.00;93361.09;2125764;27;20034;-71
2022/07/30 04:49:06;;;;;;;8.80;6.82;;;;;;;10.09;100.00;93367.97;2126332;27;20030;-71
2022/07/30 04:50:09;;;;;;;7.53;6.50;;;;;;;10.12;100.00;93369.06;2115502;27;20031;-71
2022/07/30 04:51:21;;;;;;;8.93;7.05;;;;;;;10.10;100.00;93363.41;2114296;27;20045;-71
2022/07/30 04:52:22;;;;;;;8.20;6.88;;;;;;;10.16;100.00;93371.69;2124473;27;20070;-72
2022/07/30 04:53:26;;;;;;;9.55;6.63;;;;;;;10.18;100.00;93375.44;2125188;27;20030;-71
2022/07/30 04:54:54;;;;;;;7.70;6.90;;;;;;;10.20;100.00;93372.38;2125542;27;20023;-75
2022/07/30 04:56:03;;;;;;;8.48;6.90;;;;;;;10.15;100.00;93375.53;2127263;27;20149;-72
2022/07/30 04:57:11;;;;;;;9.68;6.97;;;;;;;10.23;100.00;93380.34;2125334;27;20033;-75
2022/07/30 04:58:20;;;;;;;9.13;7.32;;;;;;;10.24;100.00;93381.88;2126133;27;20033;-75
2022/07/30 04:59:23;;;;;;;10.15;7.70;;;;;;;10.30;100.00;93385.59;2119050;27;20027;-75
2022/07/30 05:00:27;;;;;;;9.75;7.05;;;;;;;10.34;100.00;93378.28;2118942;27;20077;-72